sensor_id;sensor_type;location;lat;lon;timestamp;P1;durP1;ratioP1;P2;durP2;ratioP2
73130;SDS011;64204;13.766;100.702;2024-03-06T00:01:52;31.33;;;16.25;;
73130;SDS011;64204;13.766;100.702;2024-03-06T00:04:18;35.85;;;17.77;;
73130;SDS011;64204;13.766;100.702;2024-03-06T00:06:44;37.72;;;18.30;;
73130;SDS011;64204;13.766;100.702;2024-03-06T00:09:11;34.97;;;17.90;;
73130;SDS011;64204;13.766;100.702;2024-03-06T00:11:37;31.33;;;14.98;;
73130;SDS011;64204;13.766;100.702;2024-03-06T00:14:03;36.30;;;18.48;;
73130;SDS011;64204;13.766;100.702;2024-03-06T00:16:31;31.52;;;16.42;;
73130;SDS011;64204;13.766;100.702;2024-03-06T00:18:57;31.67;;;18.73;;
73130;SDS011;64204;13.766;100.702;2024-03-06T00:21:24;38.20;;;20.48;;
73130;SDS011;64204;13.766;100.702;2024-03-06T00:23:50;39.83;;;20.33;;
73130;SDS011;64204;13.766;100.702;2024-03-06T00:26:16;42.78;;;21.55;;
73130;SDS011;64204;13.766;100.702;2024-03-06T00:28:43;44.65;;;24.65;;
73130;SDS011;64204;13.766;100.702;2024-03-06T00:31:10;44.72;;;20.80;;
73130;SDS011;64204;13.766;100.702;2024-03-06T00:33:36;40.00;;;20.70;;
73130;SDS011;64204;13.766;100.702;2024-03-06T00:36:03;41.72;;;20.17;;
73130;SDS011;64204;13.766;100.702;2024-03-06T00:38:30;33.13;;;19.20;;
73130;SDS011;64204;13.766;100.702;2024-03-06T00:40:56;38.42;;;21.27;;
73130;SDS011;64204;13.766;100.702;2024-03-06T00:43:23;37.13;;;18.17;;
73130;SDS011;64204;13.766;100.702;2024-03-06T00:45:49;42.08;;;21.08;;
73130;SDS011;64204;13.766;100.702;2024-03-06T00:48:16;40.05;;;20.60;;
73130;SDS011;64204;13.766;100.702;2024-03-06T00:50:45;35.17;;;21.67;;
73130;SDS011;64204;13.766;100.702;2024-03-06T00:53:12;48.33;;;22.13;;
73130;SDS011;64204;13.766;100.702;2024-03-06T00:55:38;35.70;;;18.45;;
73130;SDS011;64204;13.766;100.702;2024-03-06T00:58:05;47.35;;;21.35;;
73130;SDS011;64204;13.766;100.702;2024-03-06T01:00:32;39.50;;;19.88;;
73130;SDS011;64204;13.766;100.702;2024-03-06T01:02:59;36.28;;;19.08;;
73130;SDS011;64204;13.766;100.702;2024-03-06T01:05:25;41.78;;;20.10;;
73130;SDS011;64204;13.766;100.702;2024-03-06T01:07:52;34.65;;;19.10;;
73130;SDS011;64204;13.766;100.702;2024-03-06T01:10:20;39.05;;;20.90;;
73130;SDS011;64204;13.766;100.702;2024-03-06T01:12:46;40.53;;;20.95;;
73130;SDS011;64204;13.766;100.702;2024-03-06T01:15:13;40.35;;;20.45;;
73130;SDS011;64204;13.766;100.702;2024-03-06T01:17:39;42.80;;;20.45;;
73130;SDS011;64204;13.766;100.702;2024-03-06T01:20:06;37.47;;;20.38;;
73130;SDS011;64204;13.766;100.702;2024-03-06T01:22:36;41.30;;;21.17;;
73130;SDS011;64204;13.766;100.702;2024-03-06T01:25:02;37.30;;;19.08;;
73130;SDS011;64204;13.766;100.702;2024-03-06T01:27:30;28.13;;;16.58;;
73130;SDS011;64204;13.766;100.702;2024-03-06T01:29:56;31.15;;;17.75;;
73130;SDS011;64204;13.766;100.702;2024-03-06T01:32:23;33.20;;;17.42;;
73130;SDS011;64204;13.766;100.702;2024-03-06T01:34:49;31.40;;;16.95;;
73130;SDS011;64204;13.766;100.702;2024-03-06T01:37:16;33.83;;;17.33;;
73130;SDS011;64204;13.766;100.702;2024-03-06T01:39:42;35.17;;;18.85;;
73130;SDS011;64204;13.766;100.702;2024-03-06T01:42:09;33.20;;;18.17;;
73130;SDS011;64204;13.766;100.702;2024-03-06T01:44:35;35.30;;;18.58;;
73130;SDS011;64204;13.766;100.702;2024-03-06T01:47:02;34.25;;;18.08;;
73130;SDS011;64204;13.766;100.702;2024-03-06T01:49:28;32.60;;;19.27;;
73130;SDS011;64204;13.766;100.702;2024-03-06T01:51:55;43.97;;;20.55;;
73130;SDS011;64204;13.766;100.702;2024-03-06T01:54:22;38.45;;;19.25;;
73130;SDS011;64204;13.766;100.702;2024-03-06T01:56:49;37.42;;;20.80;;
73130;SDS011;64204;13.766;100.702;2024-03-06T01:59:17;39.25;;;20.70;;
73130;SDS011;64204;13.766;100.702;2024-03-06T02:01:45;34.75;;;19.25;;
73130;SDS011;64204;13.766;100.702;2024-03-06T02:04:12;36.88;;;19.17;;
73130;SDS011;64204;13.766;100.702;2024-03-06T02:06:39;39.88;;;20.65;;
73130;SDS011;64204;13.766;100.702;2024-03-06T02:09:05;35.90;;;19.70;;
73130;SDS011;64204;13.766;100.702;2024-03-06T02:11:32;39.50;;;20.02;;
73130;SDS011;64204;13.766;100.702;2024-03-06T02:13:59;38.20;;;19.63;;
73130;SDS011;64204;13.766;100.702;2024-03-06T02:16:25;36.45;;;19.23;;
73130;SDS011;64204;13.766;100.702;2024-03-06T02:18:53;34.33;;;19.63;;
73130;SDS011;64204;13.766;100.702;2024-03-06T02:21:23;34.78;;;19.52;;
73130;SDS011;64204;13.766;100.702;2024-03-06T02:23:50;31.02;;;17.35;;
73130;SDS011;64204;13.766;100.702;2024-03-06T02:26:17;37.58;;;19.88;;
73130;SDS011;64204;13.766;100.702;2024-03-06T02:28:47;35.25;;;19.20;;
73130;SDS011;64204;13.766;100.702;2024-03-06T02:31:17;32.22;;;19.50;;
73130;SDS011;64204;13.766;100.702;2024-03-06T02:33:47;27.27;;;17.60;;
73130;SDS011;64204;13.766;100.702;2024-03-06T02:36:17;27.92;;;16.83;;
73130;SDS011;64204;13.766;100.702;2024-03-06T02:38:44;30.55;;;18.30;;
73130;SDS011;64204;13.766;100.702;2024-03-06T02:41:11;29.73;;;15.70;;
73130;SDS011;64204;13.766;100.702;2024-03-06T02:43:41;30.25;;;17.40;;
73130;SDS011;64204;13.766;100.702;2024-03-06T02:46:08;27.52;;;16.08;;
73130;SDS011;64204;13.766;100.702;2024-03-06T02:48:34;30.65;;;17.58;;
73130;SDS011;64204;13.766;100.702;2024-03-06T02:51:01;34.58;;;18.95;;
73130;SDS011;64204;13.766;100.702;2024-03-06T02:53:27;31.50;;;17.80;;
73130;SDS011;64204;13.766;100.702;2024-03-06T02:55:54;32.00;;;18.92;;
73130;SDS011;64204;13.766;100.702;2024-03-06T02:58:20;29.00;;;17.13;;
73130;SDS011;64204;13.766;100.702;2024-03-06T03:00:47;26.92;;;16.10;;
73130;SDS011;64204;13.766;100.702;2024-03-06T03:03:14;26.38;;;16.75;;
73130;SDS011;64204;13.766;100.702;2024-03-06T03:05:40;47.30;;;17.00;;
73130;SDS011;64204;13.766;100.702;2024-03-06T03:08:06;24.92;;;15.35;;
73130;SDS011;64204;13.766;100.702;2024-03-06T03:10:33;26.65;;;16.50;;
73130;SDS011;64204;13.766;100.702;2024-03-06T03:13:00;25.20;;;14.57;;
73130;SDS011;64204;13.766;100.702;2024-03-06T03:15:27;27.80;;;14.75;;
73130;SDS011;64204;13.766;100.702;2024-03-06T03:17:53;22.02;;;13.73;;
73130;SDS011;64204;13.766;100.702;2024-03-06T03:20:20;22.67;;;13.23;;
73130;SDS011;64204;13.766;100.702;2024-03-06T03:22:46;23.13;;;13.57;;
73130;SDS011;64204;13.766;100.702;2024-03-06T03:25:13;17.67;;;12.63;;
73130;SDS011;64204;13.766;100.702;2024-03-06T03:27:40;22.23;;;12.73;;
73130;SDS011;64204;13.766;100.702;2024-03-06T03:30:07;25.73;;;12.57;;
73130;SDS011;64204;13.766;100.702;2024-03-06T03:32:34;15.52;;;11.82;;
73130;SDS011;64204;13.766;100.702;2024-03-06T03:35:01;20.85;;;13.00;;
73130;SDS011;64204;13.766;100.702;2024-03-06T03:37:27;23.15;;;12.55;;
73130;SDS011;64204;13.766;100.702;2024-03-06T03:39:53;18.92;;;12.00;;
73130;SDS011;64204;13.766;100.702;2024-03-06T03:42:20;20.52;;;11.95;;
73130;SDS011;64204;13.766;100.702;2024-03-06T03:44:46;20.10;;;12.23;;
73130;SDS011;64204;13.766;100.702;2024-03-06T03:47:12;21.67;;;11.60;;
73130;SDS011;64204;13.766;100.702;2024-03-06T03:49:39;20.98;;;12.95;;
73130;SDS011;64204;13.766;100.702;2024-03-06T03:52:05;20.40;;;13.30;;
73130;SDS011;64204;13.766;100.702;2024-03-06T03:54:32;19.17;;;12.20;;
73130;SDS011;64204;13.766;100.702;2024-03-06T03:56:58;20.48;;;12.40;;
73130;SDS011;64204;13.766;100.702;2024-03-06T03:59:25;18.88;;;12.82;;
73130;SDS011;64204;13.766;100.702;2024-03-06T04:01:51;19.80;;;12.35;;
73130;SDS011;64204;13.766;100.702;2024-03-06T04:04:18;21.05;;;12.77;;
73130;SDS011;64204;13.766;100.702;2024-03-06T04:06:44;21.23;;;12.82;;
73130;SDS011;64204;13.766;100.702;2024-03-06T04:09:11;18.65;;;12.60;;
73130;SDS011;64204;13.766;100.702;2024-03-06T04:11:37;22.77;;;13.68;;
73130;SDS011;64204;13.766;100.702;2024-03-06T04:14:04;18.77;;;12.68;;
73130;SDS011;64204;13.766;100.702;2024-03-06T04:16:32;22.42;;;13.10;;
73130;SDS011;64204;13.766;100.702;2024-03-06T04:18:58;19.02;;;12.43;;
73130;SDS011;64204;13.766;100.702;2024-03-06T04:21:26;20.55;;;13.50;;
73130;SDS011;64204;13.766;100.702;2024-03-06T04:23:52;16.70;;;12.00;;
73130;SDS011;64204;13.766;100.702;2024-03-06T04:26:19;20.23;;;12.55;;
73130;SDS011;64204;13.766;100.702;2024-03-06T04:28:49;20.08;;;12.52;;
73130;SDS011;64204;13.766;100.702;2024-03-06T04:31:16;22.05;;;12.80;;
73130;SDS011;64204;13.766;100.702;2024-03-06T04:33:43;21.33;;;11.93;;
73130;SDS011;64204;13.766;100.702;2024-03-06T04:36:09;17.15;;;11.98;;
73130;SDS011;64204;13.766;100.702;2024-03-06T04:38:35;19.63;;;11.75;;
73130;SDS011;64204;13.766;100.702;2024-03-06T04:41:02;26.52;;;12.18;;
73130;SDS011;64204;13.766;100.702;2024-03-06T04:43:30;28.30;;;13.27;;
73130;SDS011;64204;13.766;100.702;2024-03-06T04:45:57;17.33;;;12.13;;
73130;SDS011;64204;13.766;100.702;2024-03-06T04:48:23;22.33;;;13.43;;
73130;SDS011;64204;13.766;100.702;2024-03-06T04:50:49;20.02;;;12.80;;
73130;SDS011;64204;13.766;100.702;2024-03-06T04:53:16;22.38;;;12.15;;
73130;SDS011;64204;13.766;100.702;2024-03-06T04:55:42;20.75;;;12.85;;
73130;SDS011;64204;13.766;100.702;2024-03-06T04:58:08;22.58;;;12.77;;
73130;SDS011;64204;13.766;100.702;2024-03-06T05:00:35;24.73;;;13.07;;
73130;SDS011;64204;13.766;100.702;2024-03-06T05:03:01;22.13;;;12.45;;
73130;SDS011;64204;13.766;100.702;2024-03-06T05:05:28;17.02;;;11.77;;
73130;SDS011;64204;13.766;100.702;2024-03-06T05:07:57;18.05;;;11.65;;
73130;SDS011;64204;13.766;100.702;2024-03-06T05:10:24;21.20;;;12.13;;
73130;SDS011;64204;13.766;100.702;2024-03-06T05:12:52;20.17;;;12.07;;
73130;SDS011;64204;13.766;100.702;2024-03-06T05:15:19;18.13;;;11.60;;
73130;SDS011;64204;13.766;100.702;2024-03-06T05:17:45;21.05;;;11.48;;
73130;SDS011;64204;13.766;100.702;2024-03-06T05:20:12;18.13;;;11.65;;
73130;SDS011;64204;13.766;100.702;2024-03-06T05:22:39;19.23;;;11.35;;
73130;SDS011;64204;13.766;100.702;2024-03-06T05:25:06;18.73;;;12.43;;
73130;SDS011;64204;13.766;100.702;2024-03-06T05:27:32;24.17;;;13.00;;
73130;SDS011;64204;13.766;100.702;2024-03-06T05:29:58;18.40;;;12.77;;
73130;SDS011;64204;13.766;100.702;2024-03-06T05:32:25;22.92;;;12.95;;
73130;SDS011;64204;13.766;100.702;2024-03-06T05:34:51;17.85;;;12.20;;
73130;SDS011;64204;13.766;100.702;2024-03-06T05:37:17;22.00;;;12.75;;
73130;SDS011;64204;13.766;100.702;2024-03-06T05:39:45;20.45;;;12.48;;
73130;SDS011;64204;13.766;100.702;2024-03-06T05:42:11;21.77;;;11.65;;
73130;SDS011;64204;13.766;100.702;2024-03-06T05:44:38;19.30;;;12.63;;
73130;SDS011;64204;13.766;100.702;2024-03-06T05:47:04;20.45;;;11.80;;
73130;SDS011;64204;13.766;100.702;2024-03-06T05:49:32;17.25;;;11.65;;
73130;SDS011;64204;13.766;100.702;2024-03-06T05:51:58;17.88;;;10.80;;
73130;SDS011;64204;13.766;100.702;2024-03-06T05:54:25;14.68;;;10.10;;
73130;SDS011;64204;13.766;100.702;2024-03-06T05:56:51;17.13;;;11.27;;
73130;SDS011;64204;13.766;100.702;2024-03-06T05:59:18;18.10;;;11.77;;
73130;SDS011;64204;13.766;100.702;2024-03-06T06:01:45;17.58;;;11.45;;
73130;SDS011;64204;13.766;100.702;2024-03-06T06:04:12;17.63;;;10.25;;
73130;SDS011;64204;13.766;100.702;2024-03-06T06:06:39;17.85;;;9.77;;
73130;SDS011;64204;13.766;100.702;2024-03-06T06:09:05;18.52;;;11.15;;
73130;SDS011;64204;13.766;100.702;2024-03-06T06:11:32;20.40;;;11.65;;
73130;SDS011;64204;13.766;100.702;2024-03-06T06:13:59;16.38;;;11.30;;
73130;SDS011;64204;13.766;100.702;2024-03-06T06:16:25;17.83;;;10.48;;
73130;SDS011;64204;13.766;100.702;2024-03-06T06:18:52;16.13;;;11.18;;
73130;SDS011;64204;13.766;100.702;2024-03-06T06:21:21;15.43;;;10.43;;
73130;SDS011;64204;13.766;100.702;2024-03-06T06:23:47;16.05;;;10.70;;
73130;SDS011;64204;13.766;100.702;2024-03-06T06:26:14;19.02;;;10.55;;
73130;SDS011;64204;13.766;100.702;2024-03-06T06:28:43;15.43;;;10.00;;
73130;SDS011;64204;13.766;100.702;2024-03-06T06:31:11;15.88;;;10.13;;
73130;SDS011;64204;13.766;100.702;2024-03-06T06:33:38;14.55;;;9.60;;
73130;SDS011;64204;13.766;100.702;2024-03-06T06:36:04;19.40;;;9.82;;
73130;SDS011;64204;13.766;100.702;2024-03-06T06:38:31;15.63;;;10.95;;
73130;SDS011;64204;13.766;100.702;2024-03-06T06:40:58;15.73;;;9.43;;
73130;SDS011;64204;13.766;100.702;2024-03-06T06:43:24;13.27;;;8.75;;
73130;SDS011;64204;13.766;100.702;2024-03-06T06:45:50;14.98;;;9.95;;
73130;SDS011;64204;13.766;100.702;2024-03-06T06:48:17;18.02;;;9.85;;
73130;SDS011;64204;13.766;100.702;2024-03-06T06:50:43;14.45;;;8.77;;
73130;SDS011;64204;13.766;100.702;2024-03-06T06:53:13;19.02;;;9.57;;
73130;SDS011;64204;13.766;100.702;2024-03-06T06:55:40;14.48;;;9.18;;
73130;SDS011;64204;13.766;100.702;2024-03-06T06:58:06;15.35;;;9.30;;
73130;SDS011;64204;13.766;100.702;2024-03-06T07:00:33;16.90;;;10.10;;
73130;SDS011;64204;13.766;100.702;2024-03-06T07:02:59;15.85;;;9.30;;
73130;SDS011;64204;13.766;100.702;2024-03-06T07:05:26;16.23;;;9.43;;
73130;SDS011;64204;13.766;100.702;2024-03-06T07:07:52;13.63;;;9.77;;
73130;SDS011;64204;13.766;100.702;2024-03-06T07:10:18;13.57;;;8.73;;
73130;SDS011;64204;13.766;100.702;2024-03-06T07:12:45;16.10;;;8.90;;
73130;SDS011;64204;13.766;100.702;2024-03-06T07:15:11;17.45;;;10.65;;
73130;SDS011;64204;13.766;100.702;2024-03-06T07:17:38;15.65;;;9.05;;
73130;SDS011;64204;13.766;100.702;2024-03-06T07:20:04;17.00;;;9.13;;
73130;SDS011;64204;13.766;100.702;2024-03-06T07:22:31;14.88;;;9.25;;
73130;SDS011;64204;13.766;100.702;2024-03-06T07:24:59;14.70;;;9.02;;
73130;SDS011;64204;13.766;100.702;2024-03-06T07:27:27;14.15;;;8.90;;
73130;SDS011;64204;13.766;100.702;2024-03-06T07:29:54;13.43;;;8.60;;
73130;SDS011;64204;13.766;100.702;2024-03-06T07:32:21;14.25;;;9.23;;
73130;SDS011;64204;13.766;100.702;2024-03-06T07:34:47;13.25;;;8.85;;
73130;SDS011;64204;13.766;100.702;2024-03-06T07:37:13;16.55;;;9.40;;
73130;SDS011;64204;13.766;100.702;2024-03-06T07:39:40;14.50;;;9.27;;
73130;SDS011;64204;13.766;100.702;2024-03-06T07:42:06;15.35;;;9.05;;
73130;SDS011;64204;13.766;100.702;2024-03-06T07:44:33;14.98;;;8.23;;
73130;SDS011;64204;13.766;100.702;2024-03-06T07:47:01;18.92;;;9.82;;
73130;SDS011;64204;13.766;100.702;2024-03-06T07:49:28;16.48;;;9.30;;
73130;SDS011;64204;13.766;100.702;2024-03-06T07:51:54;23.10;;;8.80;;
73130;SDS011;64204;13.766;100.702;2024-03-06T07:54:22;13.15;;;8.43;;
73130;SDS011;64204;13.766;100.702;2024-03-06T07:56:48;14.32;;;8.40;;
73130;SDS011;64204;13.766;100.702;2024-03-06T07:59:15;15.80;;;9.48;;
73130;SDS011;64204;13.766;100.702;2024-03-06T08:01:43;15.27;;;9.50;;
73130;SDS011;64204;13.766;100.702;2024-03-06T08:04:09;14.43;;;8.90;;
73130;SDS011;64204;13.766;100.702;2024-03-06T08:06:35;13.32;;;8.52;;
73130;SDS011;64204;13.766;100.702;2024-03-06T08:09:02;14.43;;;8.95;;
73130;SDS011;64204;13.766;100.702;2024-03-06T08:11:29;16.98;;;8.98;;
73130;SDS011;64204;13.766;100.702;2024-03-06T08:13:59;16.38;;;9.13;;
73130;SDS011;64204;13.766;100.702;2024-03-06T08:16:27;17.58;;;9.85;;
73130;SDS011;64204;13.766;100.702;2024-03-06T08:18:55;13.57;;;9.45;;
73130;SDS011;64204;13.766;100.702;2024-03-06T08:21:23;14.02;;;8.80;;
73130;SDS011;64204;13.766;100.702;2024-03-06T08:23:50;12.45;;;8.07;;
73130;SDS011;64204;13.766;100.702;2024-03-06T08:26:16;13.40;;;8.63;;
73130;SDS011;64204;13.766;100.702;2024-03-06T08:28:42;16.35;;;8.40;;
73130;SDS011;64204;13.766;100.702;2024-03-06T08:31:09;14.45;;;9.07;;
73130;SDS011;64204;13.766;100.702;2024-03-06T08:33:35;15.18;;;8.68;;
73130;SDS011;64204;13.766;100.702;2024-03-06T08:36:02;16.25;;;9.10;;
73130;SDS011;64204;13.766;100.702;2024-03-06T08:38:29;16.65;;;8.52;;
73130;SDS011;64204;13.766;100.702;2024-03-06T08:40:56;14.57;;;9.05;;
73130;SDS011;64204;13.766;100.702;2024-03-06T08:43:22;15.30;;;9.15;;
73130;SDS011;64204;13.766;100.702;2024-03-06T08:45:48;13.75;;;8.57;;
73130;SDS011;64204;13.766;100.702;2024-03-06T08:48:15;15.93;;;9.13;;
73130;SDS011;64204;13.766;100.702;2024-03-06T08:50:41;16.10;;;9.02;;
73130;SDS011;64204;13.766;100.702;2024-03-06T08:53:07;20.83;;;8.95;;
73130;SDS011;64204;13.766;100.702;2024-03-06T08:55:34;14.57;;;9.40;;
73130;SDS011;64204;13.766;100.702;2024-03-06T08:58:01;18.30;;;8.60;;
73130;SDS011;64204;13.766;100.702;2024-03-06T09:00:27;18.77;;;9.32;;
73130;SDS011;64204;13.766;100.702;2024-03-06T09:02:54;15.60;;;9.05;;
73130;SDS011;64204;13.766;100.702;2024-03-06T09:05:20;15.43;;;9.07;;
73130;SDS011;64204;13.766;100.702;2024-03-06T09:07:47;12.43;;;8.10;;
73130;SDS011;64204;13.766;100.702;2024-03-06T09:10:13;13.25;;;8.68;;
73130;SDS011;64204;13.766;100.702;2024-03-06T09:12:40;14.98;;;8.57;;
73130;SDS011;64204;13.766;100.702;2024-03-06T09:15:07;14.75;;;8.52;;
73130;SDS011;64204;13.766;100.702;2024-03-06T09:17:34;15.98;;;8.15;;
73130;SDS011;64204;13.766;100.702;2024-03-06T09:20:00;17.05;;;8.40;;
73130;SDS011;64204;13.766;100.702;2024-03-06T09:22:38;15.50;;;8.80;;
73130;SDS011;64204;13.766;100.702;2024-03-06T09:25:05;13.45;;;7.82;;
73130;SDS011;64204;13.766;100.702;2024-03-06T09:27:32;13.38;;;8.05;;
73130;SDS011;64204;13.766;100.702;2024-03-06T09:29:59;14.75;;;7.35;;
73130;SDS011;64204;13.766;100.702;2024-03-06T09:32:25;10.90;;;7.82;;
73130;SDS011;64204;13.766;100.702;2024-03-06T09:34:52;13.77;;;8.40;;
73130;SDS011;64204;13.766;100.702;2024-03-06T09:37:18;14.90;;;7.90;;
73130;SDS011;64204;13.766;100.702;2024-03-06T09:39:45;15.98;;;8.27;;
73130;SDS011;64204;13.766;100.702;2024-03-06T09:42:13;15.68;;;8.45;;
73130;SDS011;64204;13.766;100.702;2024-03-06T09:44:42;15.30;;;8.20;;
73130;SDS011;64204;13.766;100.702;2024-03-06T09:47:10;16.00;;;9.10;;
73130;SDS011;64204;13.766;100.702;2024-03-06T09:49:42;17.90;;;8.45;;
73130;SDS011;64204;13.766;100.702;2024-03-06T09:52:08;18.27;;;8.43;;
73130;SDS011;64204;13.766;100.702;2024-03-06T09:54:36;15.70;;;8.13;;
73130;SDS011;64204;13.766;100.702;2024-03-06T09:57:04;16.60;;;8.82;;
73130;SDS011;64204;13.766;100.702;2024-03-06T09:59:31;21.42;;;9.18;;
73130;SDS011;64204;13.766;100.702;2024-03-06T10:01:57;16.50;;;9.00;;
73130;SDS011;64204;13.766;100.702;2024-03-06T10:04:27;14.55;;;8.88;;
73130;SDS011;64204;13.766;100.702;2024-03-06T10:06:58;18.77;;;9.10;;
73130;SDS011;64204;13.766;100.702;2024-03-06T10:09:25;17.38;;;8.52;;
73130;SDS011;64204;13.766;100.702;2024-03-06T10:11:53;16.67;;;9.73;;
73130;SDS011;64204;13.766;100.702;2024-03-06T10:14:21;15.18;;;9.10;;
73130;SDS011;64204;13.766;100.702;2024-03-06T10:16:52;23.40;;;8.95;;
73130;SDS011;64204;13.766;100.702;2024-03-06T10:19:19;17.90;;;8.23;;
73130;SDS011;64204;13.766;100.702;2024-03-06T10:21:49;17.77;;;8.52;;
73130;SDS011;64204;13.766;100.702;2024-03-06T10:24:19;16.15;;;8.63;;
73130;SDS011;64204;13.766;100.702;2024-03-06T10:26:52;18.63;;;9.45;;
73130;SDS011;64204;13.766;100.702;2024-03-06T10:29:24;21.95;;;8.93;;
73130;SDS011;64204;13.766;100.702;2024-03-06T10:31:52;16.15;;;8.52;;
73130;SDS011;64204;13.766;100.702;2024-03-06T10:34:20;13.13;;;8.05;;
73130;SDS011;64204;13.766;100.702;2024-03-06T10:36:54;18.15;;;9.38;;
73130;SDS011;64204;13.766;100.702;2024-03-06T10:39:22;14.52;;;8.20;;
73130;SDS011;64204;13.766;100.702;2024-03-06T10:41:53;17.20;;;8.88;;
73130;SDS011;64204;13.766;100.702;2024-03-06T10:44:24;16.55;;;8.85;;
73130;SDS011;64204;13.766;100.702;2024-03-06T10:49:31;13.70;;;8.68;;
73130;SDS011;64204;13.766;100.702;2024-03-06T10:52:00;15.10;;;9.13;;
73130;SDS011;64204;13.766;100.702;2024-03-06T10:54:28;14.95;;;8.65;;
73130;SDS011;64204;13.766;100.702;2024-03-06T10:56:56;14.07;;;8.75;;
73130;SDS011;64204;13.766;100.702;2024-03-06T10:59:26;17.45;;;8.63;;
73130;SDS011;64204;13.766;100.702;2024-03-06T11:01:56;17.05;;;8.75;;
73130;SDS011;64204;13.766;100.702;2024-03-06T11:04:32;15.75;;;9.10;;
73130;SDS011;64204;13.766;100.702;2024-03-06T11:07:01;17.90;;;9.95;;
73130;SDS011;64204;13.766;100.702;2024-03-06T11:09:35;15.48;;;9.15;;
73130;SDS011;64204;13.766;100.702;2024-03-06T11:12:02;18.33;;;9.35;;
73130;SDS011;64204;13.766;100.702;2024-03-06T11:14:30;17.08;;;9.52;;
73130;SDS011;64204;13.766;100.702;2024-03-06T11:17:04;19.30;;;9.45;;
73130;SDS011;64204;13.766;100.702;2024-03-06T11:28:21;16.77;;;9.98;;
73130;SDS011;64204;13.766;100.702;2024-03-06T11:33:35;23.35;;;10.60;;
73130;SDS011;64204;13.766;100.702;2024-03-06T11:36:16;18.00;;;9.60;;
73130;SDS011;64204;13.766;100.702;2024-03-06T11:38:50;19.27;;;9.52;;
73130;SDS011;64204;13.766;100.702;2024-03-06T11:41:25;21.48;;;10.00;;
73130;SDS011;64204;13.766;100.702;2024-03-06T11:43:55;19.05;;;9.98;;
73130;SDS011;64204;13.766;100.702;2024-03-06T11:46:23;20.00;;;9.73;;
73130;SDS011;64204;13.766;100.702;2024-03-06T11:49:20;18.40;;;10.27;;
73130;SDS011;64204;13.766;100.702;2024-03-06T11:51:53;20.95;;;9.70;;
73130;SDS011;64204;13.766;100.702;2024-03-06T11:54:20;19.17;;;9.82;;
73130;SDS011;64204;13.766;100.702;2024-03-06T11:56:57;14.40;;;9.68;;
73130;SDS011;64204;13.766;100.702;2024-03-06T11:59:30;18.00;;;10.38;;
73130;SDS011;64204;13.766;100.702;2024-03-06T12:01:58;21.23;;;10.80;;
73130;SDS011;64204;13.766;100.702;2024-03-06T12:04:32;18.80;;;10.55;;
73130;SDS011;64204;13.766;100.702;2024-03-06T12:07:00;20.25;;;10.38;;
73130;SDS011;64204;13.766;100.702;2024-03-06T12:09:35;22.77;;;9.90;;
73130;SDS011;64204;13.766;100.702;2024-03-06T12:12:03;23.27;;;10.38;;
73130;SDS011;64204;13.766;100.702;2024-03-06T12:14:34;22.55;;;10.43;;
73130;SDS011;64204;13.766;100.702;2024-03-06T12:17:01;23.13;;;11.23;;
73130;SDS011;64204;13.766;100.702;2024-03-06T12:19:34;18.70;;;10.07;;
73130;SDS011;64204;13.766;100.702;2024-03-06T12:22:01;18.70;;;10.30;;
73130;SDS011;64204;13.766;100.702;2024-03-06T12:24:32;21.23;;;10.93;;
73130;SDS011;64204;13.766;100.702;2024-03-06T12:27:02;18.25;;;10.40;;
73130;SDS011;64204;13.766;100.702;2024-03-06T12:29:30;22.13;;;10.50;;
73130;SDS011;64204;13.766;100.702;2024-03-06T12:32:02;22.52;;;10.95;;
73130;SDS011;64204;13.766;100.702;2024-03-06T12:34:28;19.90;;;10.32;;
73130;SDS011;64204;13.766;100.702;2024-03-06T12:37:08;16.88;;;10.55;;
73130;SDS011;64204;13.766;100.702;2024-03-06T12:39:36;19.17;;;11.40;;
73130;SDS011;64204;13.766;100.702;2024-03-06T12:42:03;21.13;;;10.93;;
73130;SDS011;64204;13.766;100.702;2024-03-06T12:44:29;22.00;;;10.13;;
73130;SDS011;64204;13.766;100.702;2024-03-06T12:46:56;17.98;;;10.10;;
73130;SDS011;64204;13.766;100.702;2024-03-06T12:49:22;19.30;;;11.27;;
73130;SDS011;64204;13.766;100.702;2024-03-06T12:51:48;20.20;;;11.60;;
73130;SDS011;64204;13.766;100.702;2024-03-06T12:54:15;22.73;;;11.63;;
73130;SDS011;64204;13.766;100.702;2024-03-06T12:56:41;21.95;;;11.70;;
73130;SDS011;64204;13.766;100.702;2024-03-06T12:59:07;26.27;;;12.25;;
73130;SDS011;64204;13.766;100.702;2024-03-06T13:01:35;20.02;;;11.52;;
73130;SDS011;64204;13.766;100.702;2024-03-06T13:04:01;24.42;;;11.55;;
73130;SDS011;64204;13.766;100.702;2024-03-06T13:06:27;23.23;;;12.10;;
73130;SDS011;64204;13.766;100.702;2024-03-06T13:08:54;22.10;;;11.85;;
73130;SDS011;64204;13.766;100.702;2024-03-06T13:11:21;17.73;;;11.50;;
73130;SDS011;64204;13.766;100.702;2024-03-06T13:13:48;21.85;;;11.85;;
73130;SDS011;64204;13.766;100.702;2024-03-06T13:16:14;26.30;;;11.95;;
73130;SDS011;64204;13.766;100.702;2024-03-06T13:18:40;17.20;;;10.70;;
73130;SDS011;64204;13.766;100.702;2024-03-06T13:21:07;20.27;;;11.25;;
73130;SDS011;64204;13.766;100.702;2024-03-06T13:23:33;21.77;;;11.10;;
73130;SDS011;64204;13.766;100.702;2024-03-06T13:26:00;19.58;;;12.02;;
73130;SDS011;64204;13.766;100.702;2024-03-06T13:28:26;26.85;;;12.07;;
73130;SDS011;64204;13.766;100.702;2024-03-06T13:30:53;18.02;;;11.73;;
73130;SDS011;64204;13.766;100.702;2024-03-06T13:33:19;24.00;;;11.77;;
73130;SDS011;64204;13.766;100.702;2024-03-06T13:35:46;21.58;;;11.25;;
73130;SDS011;64204;13.766;100.702;2024-03-06T13:38:12;18.00;;;10.55;;
73130;SDS011;64204;13.766;100.702;2024-03-06T13:40:38;22.40;;;11.45;;
73130;SDS011;64204;13.766;100.702;2024-03-06T13:43:05;24.60;;;11.63;;
73130;SDS011;64204;13.766;100.702;2024-03-06T13:45:32;21.08;;;11.23;;
73130;SDS011;64204;13.766;100.702;2024-03-06T13:47:58;18.60;;;11.75;;
73130;SDS011;64204;13.766;100.702;2024-03-06T13:50:25;24.13;;;11.88;;
73130;SDS011;64204;13.766;100.702;2024-03-06T13:55:19;19.35;;;11.52;;
73130;SDS011;64204;13.766;100.702;2024-03-06T13:57:45;21.48;;;11.52;;
73130;SDS011;64204;13.766;100.702;2024-03-06T14:00:12;22.20;;;11.20;;
73130;SDS011;64204;13.766;100.702;2024-03-06T14:02:48;20.77;;;11.60;;
73130;SDS011;64204;13.766;100.702;2024-03-06T14:05:14;21.33;;;11.60;;
73130;SDS011;64204;13.766;100.702;2024-03-06T14:07:41;21.73;;;11.55;;
73130;SDS011;64204;13.766;100.702;2024-03-06T14:10:08;21.52;;;11.20;;
73130;SDS011;64204;13.766;100.702;2024-03-06T14:12:36;21.40;;;12.27;;
73130;SDS011;64204;13.766;100.702;2024-03-06T14:15:04;20.98;;;11.40;;
73130;SDS011;64204;13.766;100.702;2024-03-06T14:17:34;19.65;;;11.10;;
73130;SDS011;64204;13.766;100.702;2024-03-06T14:20:00;28.63;;;10.88;;